createdAt,value
2023-04-28T00:01:12.284Z,4.75
2023-04-28T00:03:38.878Z,4.50
2023-04-28T00:06:05.937Z,4.72
2023-04-28T00:10:58.544Z,4.22
2023-04-28T00:13:24.796Z,4.70
2023-04-28T00:15:52.898Z,4.20
2023-04-28T00:18:19.725Z,4.97
2023-04-28T00:20:46.026Z,4.78
2023-04-28T00:23:12.326Z,4.88
2023-04-28T00:25:38.659Z,5.72
2023-04-28T00:28:04.976Z,6.30
2023-04-28T00:30:31.580Z,5.80
2023-04-28T00:32:57.883Z,5.90
2023-04-28T00:35:24.171Z,5.50
2023-04-28T00:37:50.416Z,5.68
2023-04-28T00:40:16.692Z,5.75
2023-04-28T00:42:42.926Z,5.72
2023-04-28T00:45:09.337Z,5.43
2023-04-28T00:47:37.007Z,5.55
2023-04-28T00:50:05.626Z,6.25
2023-04-28T00:52:31.898Z,6.60
2023-04-28T00:54:58.122Z,6.00
2023-04-28T00:57:24.380Z,5.45
2023-04-28T00:59:50.753Z,5.35
2023-04-28T01:02:18.279Z,5.68
2023-04-28T01:04:45.415Z,5.38
2023-04-28T01:09:38.430Z,5.50
2023-04-28T01:12:04.821Z,7.07
2023-04-28T01:14:31.840Z,6.47
2023-04-28T01:16:58.148Z,6.35
2023-04-28T01:19:24.488Z,9.88
2023-04-28T01:21:50.962Z,15.65
2023-04-28T01:24:17.975Z,14.55
2023-04-28T01:26:45.451Z,11.10
2023-04-28T01:29:11.846Z,6.90
2023-04-28T01:31:38.284Z,6.03
2023-04-28T01:34:04.668Z,4.97
2023-04-28T01:36:31.707Z,5.63
2023-04-28T01:38:58.057Z,5.35
2023-04-28T01:41:24.306Z,5.85
2023-04-28T01:43:50.760Z,6.20
2023-04-28T01:46:17.078Z,5.85
2023-04-28T01:48:43.316Z,6.80
2023-04-28T01:51:09.551Z,10.10
2023-04-28T01:53:36.002Z,8.45
2023-04-28T01:56:02.501Z,5.75
2023-04-28T01:58:28.896Z,6.40
2023-04-28T02:00:55.118Z,5.88
2023-04-28T02:03:21.491Z,5.97
2023-04-28T02:05:47.879Z,6.53
2023-04-28T02:08:14.265Z,6.15
2023-04-28T02:10:40.569Z,5.97
2023-04-28T02:13:07.117Z,6.05
2023-04-28T02:15:33.625Z,6.60
2023-04-28T02:17:59.926Z,6.38
2023-04-28T02:20:27.033Z,7.05
2023-04-28T02:22:53.261Z,6.25
2023-04-28T02:25:19.535Z,7.05
2023-04-28T02:27:45.992Z,6.30
2023-04-28T02:30:12.391Z,7.68
2023-04-28T02:32:38.634Z,6.47
2023-04-28T02:35:05.051Z,7.80
2023-04-28T02:37:31.288Z,6.85
2023-04-28T02:39:58.130Z,7.00
2023-04-28T02:42:24.402Z,7.05
2023-04-28T02:44:50.675Z,6.85
2023-04-28T02:47:16.900Z,7.20
2023-04-28T02:49:43.123Z,7.70
2023-04-28T02:52:09.457Z,7.88
2023-04-28T02:54:37.090Z,6.63
2023-04-28T02:57:04.529Z,7.07
2023-04-28T02:59:30.919Z,6.30
2023-04-28T03:01:57.194Z,7.20
2023-04-28T03:04:23.531Z,6.85
2023-04-28T03:06:50.096Z,7.45
2023-04-28T03:09:16.686Z,6.95
2023-04-28T03:11:42.902Z,7.15
2023-04-28T03:14:09.169Z,7.13
2023-04-28T03:16:35.645Z,6.75
2023-04-28T03:19:01.945Z,7.35
2023-04-28T03:21:28.889Z,7.75
2023-04-28T03:26:21.472Z,7.13
2023-04-28T03:28:47.702Z,7.32
2023-04-28T03:31:13.920Z,8.82
2023-04-28T03:33:40.357Z,7.88
2023-04-28T03:36:06.761Z,8.40
2023-04-28T03:38:32.993Z,7.90
2023-04-28T03:40:59.237Z,7.50
2023-04-28T03:43:25.478Z,7.45
2023-04-28T03:45:52.010Z,7.05
2023-04-28T03:48:18.346Z,6.90
2023-04-28T03:50:45.520Z,7.03
2023-04-28T03:53:11.861Z,7.75
2023-04-28T03:55:38.391Z,7.25
2023-04-28T03:58:04.614Z,6.55
2023-04-28T04:00:31.090Z,6.80
2023-04-28T04:02:57.548Z,7.25
2023-04-28T04:05:24.129Z,7.07
2023-04-28T04:07:50.399Z,7.25
2023-04-28T04:10:17.140Z,7.90
2023-04-28T04:12:43.430Z,7.05
2023-04-28T04:15:09.781Z,7.35
2023-04-28T04:17:36.252Z,7.80
2023-04-28T04:20:02.511Z,7.40
2023-04-28T04:22:28.741Z,8.13
2023-04-28T04:24:55.295Z,7.30
2023-04-28T04:27:21.535Z,7.78
2023-04-28T04:29:48.665Z,8.10
2023-04-28T04:32:14.938Z,7.35
2023-04-28T04:34:41.312Z,7.75
2023-04-28T04:37:07.569Z,8.85
2023-04-28T04:39:33.794Z,7.75
2023-04-28T04:42:03.350Z,8.23
2023-04-28T04:44:33.693Z,8.57
2023-04-28T04:47:00.026Z,7.93
2023-04-28T04:49:26.306Z,7.35
2023-04-28T04:51:52.918Z,8.48
2023-04-28T04:54:19.148Z,9.48
2023-04-28T04:56:45.423Z,9.88
2023-04-28T04:59:11.769Z,9.80
2023-04-28T05:01:38.036Z,11.85
2023-04-28T05:04:04.513Z,11.10
2023-04-28T05:06:31.845Z,11.23
2023-04-28T05:08:59.253Z,10.45
2023-04-28T05:11:26.038Z,9.70
2023-04-28T05:13:52.279Z,9.15
2023-04-28T05:16:18.601Z,9.73
2023-04-28T05:18:44.864Z,9.13
2023-04-28T05:21:11.728Z,10.75
2023-04-28T05:23:37.986Z,12.65
2023-04-28T05:26:04.494Z,14.20
2023-04-28T05:28:31.018Z,10.90
2023-04-28T05:30:57.325Z,10.95
2023-04-28T05:33:24.030Z,10.95
2023-04-28T05:35:50.399Z,9.98
2023-04-28T05:38:16.665Z,10.90
2023-04-28T05:40:42.918Z,9.73
2023-04-28T05:43:09.153Z,10.88
2023-04-28T05:45:35.471Z,10.73
2023-04-28T05:48:01.820Z,12.30
2023-04-28T05:50:28.105Z,8.60
2023-04-28T05:52:54.325Z,9.85
2023-04-28T05:55:20.583Z,9.68
2023-04-28T05:57:52.976Z,9.50
2023-04-28T06:00:20.018Z,10.30
2023-04-28T06:02:46.464Z,10.65
2023-04-28T06:05:13.205Z,11.25
2023-04-28T06:07:39.693Z,11.10
2023-04-28T06:10:06.460Z,9.82
2023-04-28T06:12:32.675Z,9.77
2023-04-28T06:14:58.949Z,10.98
2023-04-28T06:17:25.388Z,10.10
2023-04-28T06:19:54.173Z,10.80
2023-04-28T06:22:20.469Z,10.20
2023-04-28T06:24:47.722Z,10.35
2023-04-28T06:27:14.144Z,9.73
2023-04-28T06:29:40.543Z,11.20
2023-04-28T06:32:06.812Z,9.48
2023-04-28T06:34:33.784Z,9.82
2023-04-28T06:39:26.449Z,13.57
2023-04-28T06:41:52.972Z,9.65
2023-04-28T06:44:19.316Z,9.30
2023-04-28T06:46:45.689Z,9.77
2023-04-28T06:49:11.978Z,9.65
2023-04-28T06:51:38.251Z,8.52
2023-04-28T06:54:04.525Z,11.75
2023-04-28T06:56:30.992Z,12.23
2023-04-28T06:58:57.413Z,10.10
2023-04-28T07:01:23.775Z,10.20
2023-04-28T07:03:50.266Z,8.93
2023-04-28T07:06:16.721Z,8.90
2023-04-28T07:08:43.720Z,8.35
2023-04-28T07:13:36.262Z,8.13
2023-04-28T07:16:02.633Z,8.60
2023-04-28T07:18:28.899Z,9.07
2023-04-28T07:20:55.334Z,8.68
2023-04-28T07:23:21.587Z,9.10
2023-04-28T07:25:47.846Z,9.68
2023-04-28T07:28:14.290Z,9.52
2023-04-28T07:30:40.532Z,9.93
2023-04-28T07:33:06.849Z,10.35
2023-04-28T07:35:33.298Z,11.75
2023-04-28T07:37:59.566Z,9.43
2023-04-28T07:40:25.904Z,10.40
2023-04-28T07:42:52.172Z,9.55
2023-04-28T07:45:18.521Z,9.15
2023-04-28T07:47:44.786Z,7.88
2023-04-28T07:50:11.831Z,8.35
2023-04-28T07:55:04.361Z,10.23
2023-04-28T07:57:30.653Z,9.20
2023-04-28T07:59:56.913Z,7.15
2023-04-28T08:02:23.367Z,6.47
2023-04-28T08:04:49.936Z,4.90
2023-04-28T08:07:16.521Z,5.10
2023-04-28T08:09:46.976Z,5.07
2023-04-28T08:12:13.530Z,6.22
2023-04-28T08:14:39.922Z,6.68
2023-04-28T08:17:06.154Z,6.53
2023-04-28T08:19:33.247Z,7.60
2023-04-28T08:22:00.051Z,7.70
2023-04-28T08:24:26.305Z,7.70
2023-04-28T08:26:52.546Z,8.75
2023-04-28T08:29:18.812Z,8.70
2023-04-28T08:31:45.655Z,9.70
2023-04-28T08:36:39.311Z,9.30
2023-04-28T08:39:08.438Z,10.35
2023-04-28T08:41:37.847Z,10.50
2023-04-28T08:44:07.025Z,11.30
2023-04-28T08:46:34.502Z,12.32
2023-04-28T08:49:04.225Z,12.95
2023-04-28T08:51:33.756Z,13.07
2023-04-28T08:56:34.825Z,11.00
2023-04-28T08:59:04.978Z,11.75
2023-04-28T09:01:31.757Z,11.23
2023-04-28T09:04:00.913Z,10.60
2023-04-28T09:06:28.166Z,10.50
2023-04-28T09:08:54.389Z,10.95
2023-04-28T09:11:20.962Z,9.90
2023-04-28T09:13:47.226Z,9.75
2023-04-28T09:16:13.685Z,10.15
2023-04-28T09:18:41.121Z,10.40
2023-04-28T09:21:08.330Z,9.60
2023-04-28T09:23:35.152Z,9.07
2023-04-28T09:26:06.510Z,8.23
2023-04-28T09:28:33.638Z,9.63
2023-04-28T09:30:59.974Z,8.60
2023-04-28T09:33:26.771Z,8.80
2023-04-28T09:35:53.500Z,9.57
2023-04-28T09:38:20.869Z,8.45
2023-04-28T09:40:54.739Z,8.10
2023-04-28T09:43:23.828Z,7.72
2023-04-28T09:45:50.086Z,6.93
2023-04-28T09:48:16.396Z,6.95
2023-04-28T09:50:42.779Z,6.97
2023-04-28T09:53:09.978Z,6.45
2023-04-28T09:55:36.652Z,6.78
2023-04-28T09:58:05.579Z,6.40
2023-04-28T10:00:33.512Z,6.63
2023-04-28T10:03:00.841Z,5.78
2023-04-28T10:05:27.661Z,5.57
2023-04-28T10:10:21.971Z,6.53
2023-04-28T10:12:48.327Z,6.50
2023-04-28T10:15:14.647Z,12.02
2023-04-28T10:17:40.925Z,42.05
2023-04-28T10:20:08.540Z,7.30
2023-04-28T10:22:43.767Z,8.43
2023-04-28T10:25:13.068Z,7.35
2023-04-28T10:27:43.837Z,7.30
2023-04-28T10:30:27.439Z,8.45
2023-04-28T10:33:14.007Z,7.93
2023-04-28T10:35:42.800Z,8.80
2023-04-28T10:38:10.803Z,8.13
2023-04-28T10:40:38.647Z,9.88
2023-04-28T10:43:05.638Z,11.98
2023-04-28T10:48:04.440Z,9.20
2023-04-28T10:50:38.859Z,9.50
2023-04-28T10:53:05.671Z,9.75
2023-04-28T10:55:33.699Z,8.95
2023-04-28T10:58:15.352Z,8.73
2023-04-28T11:00:42.270Z,8.60
2023-04-28T11:03:08.790Z,8.48
2023-04-28T11:05:36.092Z,9.77
2023-04-28T11:08:31.438Z,8.90
2023-04-28T11:11:09.841Z,5.38
2023-04-28T11:13:36.079Z,5.22
2023-04-28T11:16:02.849Z,5.97
2023-04-28T11:18:29.104Z,7.00
2023-04-28T11:20:57.846Z,4.97
2023-04-28T11:23:28.121Z,4.30
2023-04-28T11:25:54.964Z,4.00
2023-04-28T11:28:21.222Z,4.07
2023-04-28T11:30:47.550Z,6.30
2023-04-28T11:33:14.198Z,5.40
2023-04-28T11:35:43.519Z,4.85
2023-04-28T11:38:09.753Z,3.40
2023-04-28T11:40:36.106Z,3.30
2023-04-28T11:43:04.007Z,3.50
2023-04-28T11:45:30.389Z,3.47
2023-04-28T11:47:56.983Z,4.10
2023-04-28T11:50:36.366Z,3.25
2023-04-28T11:53:02.587Z,3.40
2023-04-28T11:55:29.528Z,3.85
2023-04-28T12:00:22.684Z,3.75
2023-04-28T12:02:49.216Z,4.53
2023-04-28T12:05:15.637Z,6.30
2023-04-28T12:07:43.417Z,7.05
2023-04-28T12:10:10.739Z,5.97
2023-04-28T12:15:07.270Z,6.78
2023-04-28T12:17:34.370Z,7.05
2023-04-28T12:20:04.919Z,8.07
2023-04-28T12:22:31.334Z,6.15
2023-04-28T12:25:08.333Z,5.40
2023-04-28T12:27:38.437Z,4.43
2023-04-28T12:30:24.093Z,4.60
2023-04-28T12:32:50.385Z,4.32
2023-04-28T12:35:16.727Z,4.47
2023-04-28T12:37:43.538Z,4.20
2023-04-28T12:42:36.426Z,3.28
2023-04-28T12:45:02.955Z,3.28
2023-04-28T12:47:29.344Z,3.35
2023-04-28T12:49:55.590Z,3.35
2023-04-28T12:52:21.855Z,4.95
2023-04-28T12:54:48.438Z,6.60
2023-04-28T12:57:15.209Z,3.40
2023-04-28T13:02:08.046Z,2.17
2023-04-28T13:04:34.645Z,2.83
2023-04-28T13:07:01.455Z,2.67
2023-04-28T13:09:27.762Z,2.97
2023-04-28T13:11:54.488Z,3.30
2023-04-28T13:14:21.045Z,3.42
2023-04-28T13:16:47.356Z,2.95
2023-04-28T13:19:14.619Z,2.67
2023-04-28T13:21:42.342Z,2.35
2023-04-28T13:24:09.075Z,3.10
2023-04-28T13:26:35.421Z,2.70
2023-04-28T13:29:02.437Z,2.53
2023-04-28T13:31:30.169Z,2.50
2023-04-28T13:33:56.960Z,1.27
2023-04-28T13:36:23.777Z,1.15
2023-04-28T13:41:16.887Z,1.10
2023-04-28T13:43:43.462Z,0.88
2023-04-28T13:46:10.695Z,0.75
2023-04-28T13:48:37.152Z,0.75
2023-04-28T13:51:03.990Z,0.90
2023-04-28T13:53:30.683Z,1.00
2023-04-28T13:55:57.683Z,1.25
2023-04-28T13:58:27.350Z,0.75
2023-04-28T14:00:56.253Z,0.70
2023-04-28T14:03:23.858Z,0.68
2023-04-28T14:05:54.034Z,0.60
2023-04-28T14:08:20.849Z,0.77
2023-04-28T14:13:14.342Z,1.35
2023-04-28T14:15:51.309Z,1.50
2023-04-28T14:18:24.588Z,1.20
2023-04-28T14:20:50.864Z,1.30
2023-04-28T14:23:17.432Z,2.08
2023-04-28T14:25:43.686Z,1.77
2023-04-28T14:28:09.917Z,1.30
2023-04-28T14:30:36.871Z,1.95
2023-04-28T14:33:03.187Z,1.70
2023-04-28T14:35:31.639Z,1.70
2023-04-28T14:37:58.203Z,1.38
2023-04-28T14:40:25.120Z,0.98
2023-04-28T14:42:51.478Z,1.27
2023-04-28T14:45:17.722Z,1.00
2023-04-28T14:47:44.019Z,1.10
2023-04-28T14:50:12.551Z,1.05
2023-04-28T14:52:40.501Z,1.42
2023-04-28T14:55:06.997Z,1.27
2023-04-28T14:57:34.915Z,1.08
2023-04-28T15:00:01.723Z,1.13
2023-04-28T15:02:29.401Z,1.00
2023-04-28T15:04:56.913Z,1.65
2023-04-28T15:07:23.724Z,1.58
2023-04-28T15:09:50.220Z,1.05
2023-04-28T15:12:16.517Z,0.90
2023-04-28T15:14:42.763Z,1.00
2023-04-28T15:17:09.888Z,0.90
2023-04-28T15:19:36.776Z,1.05
2023-04-28T15:24:29.870Z,1.00
2023-04-28T15:26:56.470Z,0.68
2023-04-28T15:29:22.707Z,0.70
2023-04-28T15:31:49.162Z,1.08
2023-04-28T15:34:15.707Z,8.93
2023-04-28T15:36:43.293Z,0.90
2023-04-28T15:39:10.299Z,1.05
2023-04-28T15:41:37.492Z,0.85
2023-04-28T15:44:04.823Z,1.02
2023-04-28T15:46:31.157Z,0.95
2023-04-28T15:48:57.436Z,0.90
2023-04-28T15:51:23.885Z,0.70
2023-04-28T15:53:50.789Z,0.85
2023-04-28T15:58:46.072Z,0.70
2023-04-28T16:01:12.433Z,1.00
2023-04-28T16:03:39.642Z,0.63
2023-04-28T16:06:06.642Z,1.00
2023-04-28T16:10:59.198Z,1.00
2023-04-28T16:13:26.455Z,0.63
2023-04-28T16:15:53.082Z,0.60
2023-04-28T16:18:19.400Z,1.00
2023-04-28T16:20:45.606Z,1.05
2023-04-28T16:23:13.884Z,0.85
2023-04-28T16:25:41.083Z,0.55
2023-04-28T16:28:07.440Z,0.75
2023-04-28T16:30:33.992Z,0.70
2023-04-28T16:33:00.367Z,0.77
2023-04-28T16:35:26.664Z,0.77
2023-04-28T16:37:52.883Z,0.70
2023-04-28T16:40:19.134Z,0.98
2023-04-28T16:42:46.019Z,1.40
2023-04-28T16:45:12.418Z,0.90
2023-04-28T16:47:42.115Z,1.15
2023-04-28T16:50:09.952Z,0.98
2023-04-28T16:52:36.209Z,1.02
2023-04-28T16:55:02.540Z,1.45
2023-04-28T16:57:28.973Z,1.58
2023-04-28T16:59:55.679Z,1.42
2023-04-28T17:04:48.817Z,1.38
2023-04-28T17:07:15.085Z,1.55
2023-04-28T17:09:41.306Z,1.77
2023-04-28T17:12:07.708Z,1.50
2023-04-28T17:14:35.393Z,1.80
2023-04-28T17:17:02.038Z,1.50
2023-04-28T17:19:28.322Z,1.85
2023-04-28T17:21:55.560Z,1.90
2023-04-28T17:24:21.831Z,1.92
2023-04-28T17:26:48.065Z,2.33
2023-04-28T17:29:14.349Z,2.60
2023-04-28T17:31:40.703Z,2.05
2023-04-28T17:34:07.106Z,1.90
2023-04-28T17:36:33.587Z,1.83
2023-04-28T17:38:59.909Z,4.70
2023-04-28T17:41:26.172Z,14.23
2023-04-28T17:43:52.557Z,17.63
2023-04-28T17:46:19.081Z,26.95
2023-04-28T17:48:45.536Z,12.57
2023-04-28T17:51:11.904Z,2.85
2023-04-28T17:53:39.153Z,2.58
2023-04-28T17:56:05.780Z,2.53
2023-04-28T17:58:33.075Z,2.15
2023-04-28T18:00:59.977Z,2.83
2023-04-28T18:05:52.574Z,2.30
2023-04-28T18:08:18.860Z,2.72
2023-04-28T18:10:45.077Z,2.38
2023-04-28T18:13:11.316Z,2.88
2023-04-28T18:15:37.544Z,4.05
2023-04-28T18:18:04.056Z,3.13
2023-04-28T18:20:30.345Z,3.30
2023-04-28T18:22:56.607Z,3.33
2023-04-28T18:25:23.372Z,3.88
2023-04-28T18:27:49.643Z,3.10
2023-04-28T18:30:15.924Z,3.85
2023-04-28T18:32:42.254Z,5.35
2023-04-28T18:35:08.641Z,9.80
2023-04-28T18:37:35.483Z,7.28
2023-04-28T18:42:27.965Z,5.30
2023-04-28T18:44:56.771Z,3.60
2023-04-28T18:47:23.257Z,3.70
2023-04-28T18:49:49.751Z,4.10
2023-04-28T18:52:16.086Z,4.43
2023-04-28T18:54:42.577Z,4.13
2023-04-28T18:57:09.075Z,4.60
2023-04-28T18:59:35.315Z,4.63
2023-04-28T19:02:02.192Z,3.65
2023-04-28T19:06:54.716Z,5.93
2023-04-28T19:09:20.948Z,4.55
2023-04-28T19:11:47.254Z,4.80
2023-04-28T19:14:14.173Z,6.50
2023-04-28T19:19:08.942Z,3.47
2023-04-28T19:21:40.635Z,7.28
2023-04-28T19:24:07.239Z,9.55
2023-04-28T19:26:33.696Z,8.73
2023-04-28T19:28:59.943Z,18.10
2023-04-28T19:31:26.395Z,11.60
2023-04-28T19:33:52.991Z,12.35
2023-04-28T19:36:19.230Z,9.82
2023-04-28T19:38:46.501Z,14.77
2023-04-28T19:41:12.760Z,3.97
2023-04-28T19:43:39.017Z,2.45
2023-04-28T19:46:05.503Z,1.95
2023-04-28T19:48:31.782Z,1.52
2023-04-28T19:50:58.047Z,1.60
2023-04-28T19:53:24.339Z,1.80
2023-04-28T19:55:50.768Z,1.60
2023-04-28T19:58:17.243Z,1.77
2023-04-28T20:00:43.586Z,1.70
2023-04-28T20:03:09.946Z,1.65
2023-04-28T20:05:39.506Z,1.50
2023-04-28T20:08:05.974Z,1.30
2023-04-28T20:10:32.289Z,1.13
2023-04-28T20:12:58.898Z,1.77
2023-04-28T20:15:25.343Z,1.50
2023-04-28T20:17:51.578Z,2.10
2023-04-28T20:20:17.951Z,1.58
2023-04-28T20:22:44.243Z,1.60
2023-04-28T20:25:10.818Z,1.30
2023-04-28T20:27:37.161Z,1.73
2023-04-28T20:30:03.622Z,2.10
2023-04-28T20:32:29.954Z,2.00
2023-04-28T20:34:56.219Z,1.70
2023-04-28T20:37:23.374Z,1.60
2023-04-28T20:39:50.785Z,1.60
2023-04-28T20:42:17.592Z,2.05
2023-04-28T20:44:44.210Z,1.63
2023-04-28T20:47:11.037Z,1.25
2023-04-28T20:52:05.029Z,1.70
2023-04-28T20:54:32.731Z,1.70
2023-04-28T20:57:00.223Z,1.42
2023-04-28T20:59:26.451Z,1.90
2023-04-28T21:01:52.704Z,1.10
2023-04-28T21:04:18.995Z,1.60
2023-04-28T21:06:48.882Z,1.38
2023-04-28T21:09:15.151Z,1.52
2023-04-28T21:11:41.441Z,1.42
2023-04-28T21:14:07.696Z,1.20
2023-04-28T21:16:33.997Z,1.80
2023-04-28T21:19:00.902Z,1.50
2023-04-28T21:23:53.413Z,1.60
2023-04-28T21:26:20.411Z,2.35
2023-04-28T21:28:46.643Z,3.53
2023-04-28T21:31:12.889Z,2.78
2023-04-28T21:33:39.125Z,2.70
2023-04-28T21:36:09.488Z,2.92
2023-04-28T21:38:37.082Z,3.35
2023-04-28T21:41:03.414Z,3.70
2023-04-28T21:43:29.621Z,2.90
2023-04-28T21:45:55.860Z,3.40
2023-04-28T21:48:22.343Z,2.83
2023-04-28T21:50:48.574Z,2.80
2023-04-28T21:53:14.828Z,2.70
2023-04-28T21:55:41.461Z,3.15
2023-04-28T21:58:07.817Z,2.50
2023-04-28T22:00:38.968Z,3.30
2023-04-28T22:03:05.803Z,2.50
2023-04-28T22:07:58.266Z,2.53
2023-04-28T22:10:24.504Z,2.00
2023-04-28T22:12:50.750Z,1.73
2023-04-28T22:15:17.051Z,1.70
2023-04-28T22:17:43.366Z,1.20
2023-04-28T22:20:09.820Z,1.80
2023-04-28T22:22:36.094Z,1.50
2023-04-28T22:25:02.372Z,2.05
2023-04-28T22:27:30.291Z,1.75
2023-04-28T22:29:58.566Z,1.48
2023-04-28T22:32:25.761Z,1.88
2023-04-28T22:34:52.015Z,1.80
2023-04-28T22:37:18.435Z,1.48
2023-04-28T22:39:44.686Z,1.60
2023-04-28T22:42:10.915Z,1.60
2023-04-28T22:44:37.465Z,1.67
2023-04-28T22:47:03.707Z,1.90
2023-04-28T22:49:30.468Z,2.00
2023-04-28T22:51:57.974Z,2.55
2023-04-28T22:54:24.335Z,2.80
2023-04-28T22:56:52.748Z,1.90
2023-04-28T22:59:19.701Z,1.90
2023-04-28T23:01:46.017Z,1.85
2023-04-28T23:04:12.795Z,2.08
2023-04-28T23:06:39.168Z,2.05
2023-04-28T23:09:05.499Z,2.80
2023-04-28T23:11:31.751Z,3.10
2023-04-28T23:13:57.992Z,2.55
2023-04-28T23:16:24.280Z,2.65
2023-04-28T23:18:50.591Z,2.95
2023-04-28T23:21:16.853Z,3.10
2023-04-28T23:23:43.063Z,2.60
2023-04-28T23:26:09.298Z,3.20
2023-04-28T23:28:35.552Z,2.90
2023-04-28T23:31:02.338Z,3.00
2023-04-28T23:33:29.705Z,2.92
2023-04-28T23:35:56.027Z,3.20
2023-04-28T23:38:22.245Z,3.05
2023-04-28T23:40:48.466Z,3.00
2023-04-28T23:43:15.035Z,2.55
2023-04-28T23:45:41.315Z,2.13
2023-04-28T23:48:08.069Z,2.20
2023-04-28T23:50:34.294Z,2.00
2023-04-28T23:53:00.983Z,2.03
2023-04-28T23:55:27.196Z,2.58
2023-04-28T23:57:53.427Z,2.58
